createdAt,value
2023-03-19T00:00:50.612Z,97.10
2023-03-19T00:03:37.783Z,97.80
2023-03-19T00:06:05.563Z,97.70
2023-03-19T00:08:32.730Z,98.60
2023-03-19T00:11:05.517Z,98.30
2023-03-19T00:13:32.748Z,99.10
2023-03-19T00:16:00.150Z,99.10
2023-03-19T00:18:27.299Z,99.40
2023-03-19T00:20:55.108Z,99.50
2023-03-19T00:23:22.654Z,99.90
2023-03-19T00:25:50.313Z,99.90
2023-03-19T00:28:18.460Z,99.90
2023-03-19T00:30:45.926Z,99.90
2023-03-19T00:33:13.145Z,99.90
2023-03-19T00:35:41.438Z,99.90
2023-03-19T00:38:09.914Z,99.90
2023-03-19T00:40:37.289Z,99.90
2023-03-19T00:43:04.697Z,99.90
2023-03-19T00:45:32.621Z,99.90
2023-03-19T00:47:59.948Z,99.90
2023-03-19T00:50:27.393Z,99.90
2023-03-19T00:52:54.577Z,99.90
2023-03-19T00:55:22.052Z,99.90
2023-03-19T00:57:49.275Z,99.90
2023-03-19T01:00:17.819Z,99.90
2023-03-19T01:02:45.080Z,99.90
2023-03-19T01:05:13.341Z,99.90
2023-03-19T01:07:40.924Z,99.90
2023-03-19T01:10:10.072Z,99.90
2023-03-19T01:12:37.253Z,99.90
2023-03-19T01:15:07.061Z,99.90
2023-03-19T01:17:34.242Z,99.90
2023-03-19T01:20:01.983Z,99.90
2023-03-19T01:22:29.120Z,99.90
2023-03-19T01:25:00.057Z,99.90
2023-03-19T01:27:27.754Z,99.90
2023-03-19T01:29:55.632Z,99.90
2023-03-19T01:32:51.868Z,99.90
2023-03-19T01:35:35.548Z,99.90
2023-03-19T01:38:03.314Z,99.90
2023-03-19T01:40:32.897Z,99.90
2023-03-19T01:43:29.331Z,99.90
2023-03-19T01:46:31.013Z,99.90
2023-03-19T01:49:18.992Z,99.90
2023-03-19T01:51:52.764Z,99.90
2023-03-19T01:54:34.630Z,99.90
2023-03-19T01:57:26.062Z,99.90
2023-03-19T02:00:19.737Z,99.90
2023-03-19T02:02:53.289Z,99.90
2023-03-19T02:05:46.602Z,99.90
2023-03-19T02:08:17.565Z,99.90
2023-03-19T02:10:48.091Z,99.90
2023-03-19T02:13:16.024Z,99.90
2023-03-19T02:15:43.356Z,99.90
2023-03-19T02:18:11.058Z,99.90
2023-03-19T02:21:13.520Z,99.90
2023-03-19T02:24:06.700Z,99.90
2023-03-19T02:26:48.081Z,99.90
2023-03-19T02:29:15.806Z,99.90
2023-03-19T02:31:43.515Z,99.90
2023-03-19T02:34:13.862Z,99.90
2023-03-19T02:36:59.046Z,99.90
2023-03-19T02:39:50.104Z,99.90
2023-03-19T02:42:19.533Z,99.90
2023-03-19T02:44:47.816Z,99.90
2023-03-19T02:47:15.063Z,99.90
2023-03-19T02:49:42.482Z,99.90
2023-03-19T02:52:09.918Z,99.90
2023-03-19T02:54:37.453Z,99.90
2023-03-19T02:57:05.474Z,99.90
2023-03-19T02:59:33.380Z,99.90
2023-03-19T03:02:01.244Z,99.90
2023-03-19T03:04:29.298Z,99.90
2023-03-19T03:06:56.674Z,99.90
2023-03-19T03:09:24.850Z,99.90
2023-03-19T03:11:52.365Z,99.90
2023-03-19T03:14:19.718Z,99.90
2023-03-19T03:16:47.152Z,99.90
2023-03-19T03:19:14.749Z,99.90
2023-03-19T03:21:42.606Z,99.90
2023-03-19T03:24:11.081Z,99.90
2023-03-19T03:26:40.981Z,99.90
2023-03-19T03:29:09.116Z,99.90
2023-03-19T03:31:36.645Z,99.90
2023-03-19T03:34:04.554Z,99.90
2023-03-19T03:36:32.548Z,99.90
2023-03-19T03:39:00.244Z,99.90
2023-03-19T03:41:27.415Z,99.90
2023-03-19T03:43:55.064Z,99.90
2023-03-19T03:46:24.384Z,99.90
2023-03-19T03:48:53.024Z,99.90
2023-03-19T03:51:20.628Z,99.90
2023-03-19T03:53:48.356Z,99.90
2023-03-19T03:56:15.654Z,99.90
2023-03-19T03:58:43.184Z,99.90
2023-03-19T04:01:15.770Z,99.90
2023-03-19T04:03:45.636Z,99.90
2023-03-19T04:06:16.995Z,99.90
2023-03-19T04:08:45.197Z,99.90
2023-03-19T04:11:12.639Z,99.90
2023-03-19T04:13:40.190Z,99.90
2023-03-19T04:16:09.720Z,99.90
2023-03-19T04:18:38.540Z,99.90
2023-03-19T04:21:06.679Z,99.90
2023-03-19T04:23:34.135Z,99.90
2023-03-19T04:26:07.553Z,99.90
2023-03-19T04:28:38.593Z,99.90
2023-03-19T04:31:08.008Z,99.90
2023-03-19T04:33:39.755Z,99.90
2023-03-19T04:36:07.396Z,99.90
2023-03-19T04:38:36.573Z,99.90
2023-03-19T04:41:04.318Z,99.90
2023-03-19T04:43:35.153Z,99.90
2023-03-19T04:46:06.171Z,99.90
2023-03-19T04:48:35.968Z,99.90
2023-03-19T04:51:04.076Z,99.90
2023-03-19T04:53:33.075Z,99.90
2023-03-19T04:56:00.356Z,99.90
2023-03-19T04:58:28.010Z,99.90
2023-03-19T05:01:00.418Z,99.90
2023-03-19T05:03:48.058Z,99.90
2023-03-19T05:06:17.398Z,99.90
2023-03-19T05:08:45.064Z,99.90
2023-03-19T05:11:13.869Z,99.90
2023-03-19T05:13:56.786Z,99.90
2023-03-19T05:16:24.476Z,99.90
2023-03-19T05:18:54.285Z,99.90
2023-03-19T05:21:21.664Z,99.90
2023-03-19T05:23:54.635Z,99.90
2023-03-19T05:26:22.567Z,99.90
2023-03-19T05:29:10.981Z,99.90
2023-03-19T05:32:05.389Z,99.90
2023-03-19T05:34:33.581Z,99.90
2023-03-19T05:37:00.987Z,99.90
2023-03-19T05:39:28.926Z,99.90
2023-03-19T05:42:01.205Z,99.90
2023-03-19T05:44:30.709Z,99.90
2023-03-19T05:47:16.334Z,99.90
2023-03-19T05:49:49.626Z,99.90
2023-03-19T05:52:16.943Z,99.90
2023-03-19T05:54:49.323Z,99.90
2023-03-19T05:57:37.143Z,99.90
2023-03-19T06:00:09.198Z,99.90
2023-03-19T06:02:37.271Z,99.90
2023-03-19T06:05:23.615Z,99.90
2023-03-19T06:07:53.856Z,99.90
2023-03-19T06:10:28.642Z,99.90
2023-03-19T06:12:58.717Z,99.90
2023-03-19T06:15:44.120Z,99.90
2023-03-19T06:18:20.467Z,99.90
2023-03-19T06:20:48.880Z,99.90
2023-03-19T06:23:17.485Z,99.90
2023-03-19T06:25:45.579Z,99.90
2023-03-19T06:28:13.752Z,99.90
2023-03-19T06:30:44.478Z,99.90
2023-03-19T06:33:32.403Z,99.90
2023-03-19T06:36:00.924Z,99.90
2023-03-19T06:38:31.547Z,99.90
2023-03-19T06:40:59.163Z,99.90
2023-03-19T06:43:26.281Z,99.90
2023-03-19T06:45:53.912Z,99.90
2023-03-19T06:48:21.195Z,99.90
2023-03-19T06:50:48.706Z,99.90
2023-03-19T06:53:15.907Z,99.90
2023-03-19T06:55:46.984Z,99.90
2023-03-19T06:58:14.142Z,99.90
2023-03-19T07:00:41.761Z,99.90
2023-03-19T07:03:10.138Z,99.90
2023-03-19T07:05:37.666Z,99.90
2023-03-19T07:08:07.442Z,99.90
2023-03-19T07:10:35.035Z,99.90
2023-03-19T07:13:02.301Z,99.90
2023-03-19T07:15:29.729Z,99.90
2023-03-19T07:17:57.464Z,99.90
2023-03-19T07:20:24.908Z,99.90
2023-03-19T07:22:52.363Z,99.90
2023-03-19T07:25:20.133Z,99.90
2023-03-19T07:27:47.548Z,99.90
2023-03-19T07:30:16.201Z,99.90
2023-03-19T07:32:43.979Z,99.90
2023-03-19T07:35:11.768Z,99.90
2023-03-19T07:37:38.940Z,99.90
2023-03-19T07:40:07.853Z,99.90
2023-03-19T07:42:36.577Z,99.90
2023-03-19T07:45:04.877Z,99.90
2023-03-19T07:47:32.600Z,99.90
2023-03-19T07:50:00.113Z,99.90
2023-03-19T07:52:27.619Z,99.90
2023-03-19T07:54:55.238Z,99.90
2023-03-19T07:57:22.698Z,99.90
2023-03-19T07:59:50.369Z,99.90
2023-03-19T08:02:20.920Z,99.90
2023-03-19T08:04:49.891Z,99.90
2023-03-19T08:07:20.278Z,99.90
2023-03-19T08:09:48.202Z,99.90
2023-03-19T08:12:15.588Z,99.90
2023-03-19T08:14:42.982Z,99.90
2023-03-19T08:17:10.299Z,99.90
2023-03-19T08:19:38.069Z,99.90
2023-03-19T08:22:05.401Z,99.90
2023-03-19T08:24:33.170Z,99.90
2023-03-19T08:27:00.702Z,99.90
2023-03-19T08:29:28.393Z,99.90
2023-03-19T08:31:56.659Z,99.90
2023-03-19T08:34:24.205Z,99.90
2023-03-19T08:36:51.390Z,99.90
2023-03-19T08:39:19.282Z,99.90
2023-03-19T08:41:46.501Z,99.90
2023-03-19T08:44:14.209Z,99.90
2023-03-19T08:46:42.765Z,99.90
2023-03-19T08:49:10.767Z,99.90
2023-03-19T08:51:37.909Z,99.90
2023-03-19T08:54:05.884Z,99.90
2023-03-19T08:56:33.010Z,99.90
2023-03-19T08:59:00.849Z,99.90
2023-03-19T09:01:28.160Z,99.90
2023-03-19T09:03:55.608Z,99.70
2023-03-19T09:06:22.865Z,99.80
2023-03-19T09:08:50.342Z,99.70
2023-03-19T09:11:18.169Z,98.30
2023-03-19T09:13:46.159Z,98.30
2023-03-19T09:16:13.415Z,97.00
2023-03-19T09:18:40.949Z,96.70
2023-03-19T09:21:08.321Z,95.80
2023-03-19T09:23:35.863Z,94.50
2023-03-19T09:26:03.106Z,93.80
2023-03-19T09:28:30.486Z,94.80
2023-03-19T09:30:57.808Z,93.60
2023-03-19T09:33:25.509Z,92.40
2023-03-19T09:35:54.635Z,90.70
2023-03-19T09:38:22.825Z,90.30
2023-03-19T09:41:04.777Z,89.80
2023-03-19T09:43:38.456Z,87.80
2023-03-19T09:46:22.716Z,89.40
2023-03-19T09:48:53.438Z,88.30
2023-03-19T09:51:50.233Z,88.60
2023-03-19T09:54:32.074Z,87.30
2023-03-19T09:56:59.909Z,86.20
2023-03-19T09:59:28.910Z,84.30
2023-03-19T10:02:14.105Z,83.30
2023-03-19T10:04:53.125Z,80.10
2023-03-19T10:07:34.977Z,82.60
2023-03-19T10:10:23.390Z,82.70
2023-03-19T10:12:53.265Z,78.50
2023-03-19T10:15:33.775Z,78.80
2023-03-19T10:18:25.719Z,78.00
2023-03-19T10:21:09.161Z,74.60
2023-03-19T10:23:41.591Z,75.40
2023-03-19T10:26:15.989Z,74.80
2023-03-19T10:28:46.654Z,73.50
2023-03-19T10:31:28.268Z,72.50
2023-03-19T10:34:18.772Z,72.40
2023-03-19T10:36:46.306Z,70.50
2023-03-19T10:39:19.003Z,70.20
2023-03-19T10:41:49.309Z,69.10
2023-03-19T10:44:59.143Z,68.80
2023-03-19T10:47:27.006Z,70.30
2023-03-19T10:49:56.683Z,68.90
2023-03-19T10:52:35.002Z,67.30
2023-03-19T10:55:14.463Z,64.90
2023-03-19T10:57:43.649Z,62.70
2023-03-19T11:00:24.543Z,61.40
2023-03-19T11:02:54.504Z,59.90
2023-03-19T11:05:21.636Z,58.80
2023-03-19T11:08:03.952Z,58.90
2023-03-19T11:10:34.666Z,57.50
2023-03-19T11:13:25.704Z,57.60
2023-03-19T11:15:55.482Z,57.40
2023-03-19T11:18:30.251Z,58.20
2023-03-19T11:21:06.529Z,59.10
2023-03-19T11:23:41.917Z,59.00
2023-03-19T11:26:10.422Z,56.90
2023-03-19T11:28:38.516Z,57.30
2023-03-19T11:31:15.120Z,57.80
2023-03-19T11:33:45.369Z,56.80
2023-03-19T11:36:14.231Z,55.80
2023-03-19T11:38:49.582Z,55.90
2023-03-19T11:41:27.133Z,55.70
2023-03-19T11:44:14.197Z,54.70
2023-03-19T11:46:54.316Z,54.90
2023-03-19T11:50:17.979Z,55.10
2023-03-19T11:53:23.835Z,54.90
2023-03-19T11:56:15.269Z,55.70
2023-03-19T11:58:57.779Z,54.70
2023-03-19T12:01:49.613Z,54.10
2023-03-19T12:04:41.266Z,53.80
2023-03-19T12:07:27.408Z,52.40
2023-03-19T12:10:31.893Z,52.60
2023-03-19T12:13:13.829Z,51.50
2023-03-19T12:16:25.691Z,51.30
2023-03-19T12:19:29.846Z,52.50
2023-03-19T12:22:14.742Z,50.80
2023-03-19T12:25:11.094Z,49.30
2023-03-19T12:27:41.500Z,50.50
2023-03-19T12:30:24.489Z,50.80
2023-03-19T12:33:01.711Z,50.70
2023-03-19T12:35:36.455Z,49.30
2023-03-19T12:38:19.894Z,49.70
2023-03-19T12:41:05.319Z,48.70
2023-03-19T12:43:54.074Z,50.00
2023-03-19T12:46:59.330Z,49.10
2023-03-19T12:49:47.739Z,49.70
2023-03-19T12:52:38.686Z,50.30
2023-03-19T12:55:22.145Z,48.90
2023-03-19T12:58:03.456Z,50.10
2023-03-19T13:00:34.841Z,50.00
2023-03-19T13:03:29.132Z,50.60
2023-03-19T13:06:10.765Z,50.10
2023-03-19T13:08:57.393Z,50.30
2023-03-19T13:11:48.023Z,49.40
2023-03-19T13:14:22.161Z,49.50
2023-03-19T13:17:06.262Z,49.50
2023-03-19T13:19:48.648Z,50.20
2023-03-19T13:22:21.215Z,49.10
2023-03-19T13:24:50.390Z,48.60
2023-03-19T13:27:31.660Z,48.60
2023-03-19T13:30:17.878Z,48.40
2023-03-19T13:32:48.897Z,48.80
2023-03-19T13:35:28.884Z,49.60
2023-03-19T13:38:15.636Z,48.50
2023-03-19T13:40:46.094Z,48.10
2023-03-19T13:43:29.282Z,49.00
2023-03-19T13:46:24.842Z,50.00
2023-03-19T13:48:53.692Z,49.30
2023-03-19T13:51:25.287Z,48.40
2023-03-19T13:54:20.116Z,47.90
2023-03-19T13:57:12.882Z,48.30
2023-03-19T13:59:46.743Z,48.40
2023-03-19T14:02:24.073Z,47.60
2023-03-19T14:04:52.381Z,45.90
2023-03-19T14:07:25.057Z,46.20
2023-03-19T14:10:07.307Z,45.90
2023-03-19T14:12:43.828Z,46.70
2023-03-19T14:15:11.073Z,47.10
2023-03-19T14:17:42.137Z,47.70
2023-03-19T14:20:16.722Z,48.20
2023-03-19T14:22:56.668Z,48.00
2023-03-19T14:25:27.487Z,48.30
2023-03-19T14:28:00.777Z,48.40
2023-03-19T14:30:45.629Z,48.40
2023-03-19T14:33:37.653Z,48.00
2023-03-19T14:36:05.905Z,47.90
2023-03-19T14:38:57.926Z,48.10
2023-03-19T14:41:28.934Z,48.40
2023-03-19T14:44:15.542Z,47.60
2023-03-19T14:46:48.822Z,47.50
2023-03-19T14:49:50.103Z,48.20
2023-03-19T14:52:32.229Z,48.50
2023-03-19T14:55:01.759Z,48.60
2023-03-19T14:57:30.256Z,48.80
2023-03-19T14:59:57.990Z,49.10
2023-03-19T15:02:25.188Z,49.40
2023-03-19T15:04:55.219Z,49.80
2023-03-19T15:07:29.895Z,49.00
2023-03-19T15:10:01.892Z,49.50
2023-03-19T15:12:51.982Z,49.30
2023-03-19T15:15:27.162Z,50.00
2023-03-19T15:18:07.942Z,50.80
2023-03-19T15:20:47.423Z,50.50
2023-03-19T15:23:26.740Z,50.50
2023-03-19T15:26:00.348Z,50.70
2023-03-19T15:28:45.821Z,51.00
2023-03-19T15:31:31.190Z,51.30
2023-03-19T15:34:01.346Z,51.30
2023-03-19T15:36:33.597Z,51.50
2023-03-19T15:39:07.879Z,51.60
2023-03-19T15:41:40.641Z,51.40
2023-03-19T15:44:14.569Z,51.80
2023-03-19T15:46:44.653Z,52.10
2023-03-19T15:49:32.411Z,52.40
2023-03-19T15:52:04.085Z,52.50
2023-03-19T15:54:33.251Z,52.40
2023-03-19T15:57:00.651Z,52.40
2023-03-19T15:59:33.089Z,52.80
2023-03-19T16:02:03.004Z,53.20
2023-03-19T16:04:38.575Z,53.00
2023-03-19T16:07:27.109Z,53.10
2023-03-19T16:09:54.397Z,53.00
2023-03-19T16:12:41.566Z,53.30
2023-03-19T16:15:43.103Z,53.80
2023-03-19T16:18:16.602Z,53.90
2023-03-19T16:21:08.802Z,54.10
2023-03-19T16:23:44.547Z,54.40
2023-03-19T16:26:21.088Z,54.60
2023-03-19T16:28:59.162Z,54.70
2023-03-19T16:31:29.910Z,54.80
2023-03-19T16:33:57.912Z,54.90
2023-03-19T16:36:28.990Z,55.40
2023-03-19T16:39:12.875Z,55.40
2023-03-19T16:41:41.354Z,55.60
2023-03-19T16:44:18.857Z,55.90
2023-03-19T16:46:46.150Z,56.20
2023-03-19T16:49:13.610Z,56.30
2023-03-19T16:51:40.904Z,56.60
2023-03-19T16:54:10.557Z,56.80
2023-03-19T16:56:38.263Z,57.10
2023-03-19T16:59:06.240Z,57.40
2023-03-19T17:01:33.383Z,57.70
2023-03-19T17:04:01.664Z,57.90
2023-03-19T17:06:31.653Z,58.10
2023-03-19T17:08:59.217Z,58.60
2023-03-19T17:11:35.156Z,58.90
2023-03-19T17:14:03.561Z,59.00
2023-03-19T17:16:30.718Z,59.20
2023-03-19T17:18:58.601Z,59.30
2023-03-19T17:21:28.950Z,59.40
2023-03-19T17:23:56.970Z,59.80
2023-03-19T17:26:26.792Z,59.90
2023-03-19T17:28:56.101Z,60.20
2023-03-19T17:31:29.597Z,60.60
2023-03-19T17:34:01.906Z,61.20
2023-03-19T17:36:30.043Z,61.80
2023-03-19T17:38:57.618Z,62.10
2023-03-19T17:41:24.856Z,62.20
2023-03-19T17:43:52.475Z,62.60
2023-03-19T17:46:23.308Z,62.80
2023-03-19T17:48:51.595Z,63.20
2023-03-19T17:51:19.554Z,63.50
2023-03-19T17:53:51.073Z,63.60
2023-03-19T17:56:21.047Z,64.10
2023-03-19T17:58:50.452Z,64.50
2023-03-19T18:01:24.292Z,64.90
2023-03-19T18:03:54.034Z,65.40
2023-03-19T18:06:24.341Z,65.70
2023-03-19T18:08:52.060Z,66.00
2023-03-19T18:11:19.350Z,66.20
2023-03-19T18:13:46.870Z,66.40
2023-03-19T18:16:25.897Z,66.50
2023-03-19T18:18:54.485Z,67.20
2023-03-19T18:21:22.072Z,67.40
2023-03-19T18:23:49.778Z,67.60
2023-03-19T18:26:18.482Z,67.90
2023-03-19T18:28:46.292Z,68.30
2023-03-19T18:31:20.459Z,68.60
2023-03-19T18:33:53.809Z,69.10
2023-03-19T18:36:24.625Z,69.60
2023-03-19T18:38:55.044Z,70.00
2023-03-19T18:41:24.157Z,70.60
2023-03-19T18:44:04.979Z,71.00
2023-03-19T18:46:33.512Z,71.40
2023-03-19T18:49:05.448Z,72.10
2023-03-19T18:51:32.731Z,73.00
2023-03-19T18:54:00.583Z,73.50
2023-03-19T18:56:30.595Z,73.90
2023-03-19T18:58:59.449Z,74.60
2023-03-19T19:01:27.415Z,75.40
2023-03-19T19:03:55.543Z,75.90
2023-03-19T19:06:45.894Z,76.60
2023-03-19T19:09:14.099Z,77.20
2023-03-19T19:11:44.541Z,77.60
2023-03-19T19:14:20.772Z,78.30
2023-03-19T19:16:48.774Z,79.20
2023-03-19T19:19:23.071Z,79.80
2023-03-19T19:21:53.512Z,80.60
2023-03-19T19:24:21.401Z,81.40
2023-03-19T19:26:53.401Z,82.30
2023-03-19T19:29:26.542Z,83.60
2023-03-19T19:31:54.816Z,85.10
2023-03-19T19:34:23.355Z,85.50
2023-03-19T19:36:51.072Z,86.30
2023-03-19T19:39:19.170Z,87.20
2023-03-19T19:41:46.796Z,88.10
2023-03-19T19:44:18.807Z,89.00
2023-03-19T19:46:46.281Z,90.00
2023-03-19T19:49:15.147Z,90.20
2023-03-19T19:51:42.321Z,90.40
2023-03-19T19:54:09.858Z,90.60
2023-03-19T19:56:37.582Z,90.80
2023-03-19T19:59:07.845Z,91.00
2023-03-19T20:01:35.884Z,91.40
2023-03-19T20:04:04.434Z,91.70
2023-03-19T20:06:31.967Z,92.00
2023-03-19T20:08:59.510Z,92.30
2023-03-19T20:11:27.072Z,92.80
2023-03-19T20:13:55.801Z,93.30
2023-03-19T20:16:26.170Z,93.50
2023-03-19T20:18:55.050Z,93.90
2023-03-19T20:21:22.909Z,94.30
2023-03-19T20:23:55.273Z,94.70
2023-03-19T20:26:24.709Z,95.20
2023-03-19T20:28:52.895Z,95.30
2023-03-19T20:31:23.808Z,95.60
2023-03-19T20:33:51.454Z,96.10
2023-03-19T20:36:19.646Z,96.30
2023-03-19T20:38:47.197Z,96.90
2023-03-19T20:41:22.291Z,97.30
2023-03-19T20:43:51.044Z,97.90
2023-03-19T20:46:20.509Z,97.90
2023-03-19T20:48:48.796Z,98.10
2023-03-19T20:51:22.082Z,98.80
2023-03-19T20:53:51.323Z,98.80
2023-03-19T20:56:21.962Z,98.90
2023-03-19T20:58:49.513Z,99.30
2023-03-19T21:01:17.959Z,99.50
2023-03-19T21:03:45.712Z,99.70
2023-03-19T21:06:21.104Z,99.90
2023-03-19T21:08:53.339Z,99.90
2023-03-19T21:11:22.684Z,99.90
2023-03-19T21:13:52.730Z,99.90
2023-03-19T21:16:25.898Z,99.90
2023-03-19T21:18:56.772Z,99.90
2023-03-19T21:21:33.382Z,99.90
2023-03-19T21:24:03.402Z,99.90
2023-03-19T21:26:30.937Z,99.90
2023-03-19T21:29:04.085Z,99.90
2023-03-19T21:31:31.511Z,99.90
2023-03-19T21:33:59.251Z,99.90
2023-03-19T21:36:27.642Z,99.90
2023-03-19T21:38:55.173Z,99.90
2023-03-19T21:41:24.926Z,99.90
2023-03-19T21:43:56.299Z,99.90
2023-03-19T21:46:29.656Z,99.90
2023-03-19T21:48:58.671Z,99.90
2023-03-19T21:51:28.219Z,99.90
2023-03-19T21:53:55.903Z,99.90
2023-03-19T21:56:27.944Z,99.90
2023-03-19T21:58:55.862Z,99.90
2023-03-19T22:01:25.378Z,99.90
2023-03-19T22:03:54.194Z,99.90
2023-03-19T22:06:22.217Z,99.90
2023-03-19T22:08:51.218Z,99.90
2023-03-19T22:11:30.433Z,99.90
2023-03-19T22:14:04.922Z,99.90
2023-03-19T22:16:33.029Z,99.90
2023-03-19T22:19:01.526Z,99.90
2023-03-19T22:21:32.891Z,99.90
2023-03-19T22:24:00.475Z,99.90
2023-03-19T22:26:29.854Z,99.90
2023-03-19T22:29:00.891Z,99.90
2023-03-19T22:31:28.851Z,99.90
2023-03-19T22:33:56.844Z,99.90
2023-03-19T22:36:23.966Z,99.90
2023-03-19T22:38:51.851Z,99.90
2023-03-19T22:41:31.305Z,99.90
2023-03-19T22:44:00.259Z,99.90
2023-03-19T22:46:27.941Z,99.90
2023-03-19T22:48:55.785Z,99.90
2023-03-19T22:51:25.011Z,99.90
2023-03-19T22:53:53.649Z,99.90
2023-03-19T22:56:21.898Z,99.90
2023-03-19T22:58:49.450Z,99.90
2023-03-19T23:01:29.064Z,99.90
2023-03-19T23:03:57.229Z,99.90
2023-03-19T23:06:30.687Z,99.90
2023-03-19T23:08:58.816Z,99.90
2023-03-19T23:11:27.048Z,99.90
2023-03-19T23:13:56.596Z,99.90
2023-03-19T23:16:25.204Z,99.90
2023-03-19T23:21:21.416Z,99.90
2023-03-19T23:23:49.756Z,99.90
2023-03-19T23:26:31.386Z,99.90
2023-03-19T23:29:03.856Z,99.90
2023-03-19T23:31:31.985Z,99.90
2023-03-19T23:33:59.406Z,99.90
2023-03-19T23:36:27.846Z,99.90
2023-03-19T23:38:56.471Z,99.90
2023-03-19T23:41:27.463Z,99.90
2023-03-19T23:43:57.576Z,99.90
2023-03-19T23:46:24.915Z,99.90
2023-03-19T23:48:52.326Z,99.90
2023-03-19T23:51:19.671Z,99.90
2023-03-19T23:53:47.308Z,99.90
2023-03-19T23:56:26.070Z,99.90
